Time;durP1;ratioP1;P1;durP2;ratioP2;P2;SDS_P1;SDS_P2;PMS_P1;PMS_P2;Temp;Humidity;BMP_temperature;BMP_pressure;BME280_temperature;BME280_humidity;BME280_pressure;Samples;Min_cycle;Max_cycle;Signal;HPM_P1;HPM_P2
2023/09/21 00:02:08;;;;;;;4.88;2.10;;;;;;;16.64;100.00;99886.13;4958384;29;20244;-93
2023/09/21 00:04:34;;;;;;;3.43;2.40;;;;;;;16.63;100.00;99875.63;4956691;28;20048;-93
2023/09/21 00:07:00;;;;;;;5.57;2.08;;;;;;;16.65;100.00;99873.41;4956978;29;20040;-93
2023/09/21 00:09:26;;;;;;;4.57;2.20;;;;;;;16.67;100.00;99883.91;4938678;29;20075;-92
2023/09/21 00:11:51;;;;;;;4.07;2.10;;;;;;;16.64;100.00;99871.81;4938697;29;20020;-92
2023/09/21 00:14:17;;;;;;;2.90;2.00;;;;;;;16.64;100.00;99872.63;4957443;29;20028;-92
2023/09/21 00:16:44;;;;;;;4.23;1.93;;;;;;;16.71;100.00;99874.00;4955063;29;20035;-91
2023/09/21 00:19:10;;;;;;;4.07;1.90;;;;;;;16.71;100.00;99869.41;4939337;29;20023;-92
2023/09/21 00:21:37;;;;;;;3.27;1.93;;;;;;;16.48;100.00;99834.47;4994864;23;20070;-92
2023/09/21 00:24:16;;;;;;;4.38;2.05;;;;;;;16.58;100.00;99844.16;4954233;29;20027;-93
2023/09/21 00:26:50;;;;;;;3.85;1.73;;;;;;;16.41;100.00;99814.44;4969865;29;20031;-94
2023/09/21 00:29:16;;;;;;;2.60;1.90;;;;;;;16.53;100.00;99827.31;4978222;28;20035;-93
2023/09/21 00:31:51;;;;;;;4.00;1.80;;;;;;;16.58;100.00;99829.84;4978092;28;20027;-94
2023/09/21 00:34:21;;;;;;;4.47;2.30;;;;;;;16.62;100.00;99828.88;4977259;28;20028;-94
2023/09/21 00:43:06;;;;;;;5.53;1.85;;;;;;;16.68;100.00;99826.00;5602071;23;20061;-93
2023/09/21 00:45:36;;;;;;;5.47;1.75;;;;;;;16.63;100.00;99818.81;4935668;29;20033;-93
2023/09/21 01:01:00;;;;;;;3.28;1.88;;;;;;;16.74;100.00;99792.22;3605514;23;20099;-93
2023/09/21 01:06:02;;;;;;;4.40;1.75;;;;;;;16.67;100.00;99773.81;5016026;23;20054;-94
2023/09/21 01:13:49;;;;;;;3.20;1.63;;;;;;;16.80;100.00;99801.75;4999781;23;20051;-93
2023/09/21 01:18:52;;;;;;;4.45;1.80;;;;;;;16.63;100.00;99775.56;4754568;27;20056;-94
2023/09/21 01:26:32;;;;;;;2.63;1.65;;;;;;;16.66;100.00;99774.91;4938536;29;20040;-93
2023/09/21 01:28:58;;;;;;;3.30;2.10;;;;;;;16.69;100.00;99781.59;4923624;29;20103;-92
2023/09/21 01:33:54;;;;;;;2.30;1.70;;;;;;;16.47;100.00;99738.25;4937534;29;20118;-92
2023/09/21 01:36:23;;;;;;;2.95;1.90;;;;;;;16.60;100.00;99758.09;4943568;29;20043;-92
2023/09/21 01:38:50;;;;;;;3.80;2.10;;;;;;;16.68;100.00;99761.09;4930187;29;20278;-93
2023/09/21 01:41:19;;;;;;;5.10;2.00;;;;;;;16.63;100.00;99752.03;4909617;29;20031;-94
2023/09/21 01:43:45;;;;;;;3.22;1.90;;;;;;;16.62;100.00;99744.22;4920759;29;20038;-94
2023/09/21 01:46:10;;;;;;;3.17;2.00;;;;;;;16.67;100.00;99751.38;4926615;29;20032;-94
2023/09/21 01:48:35;;;;;;;6.13;2.07;;;;;;;16.66;100.00;99745.16;4939354;29;20044;-92
2023/09/21 01:51:12;;;;;;;4.70;1.92;;;;;;;16.32;100.00;99700.94;4977961;23;20014;-93
2023/09/21 01:53:39;;;;;;;3.20;1.93;;;;;;;16.56;100.00;99751.72;5139745;23;20047;-92
2023/09/21 01:56:07;;;;;;;2.17;1.63;;;;;;;16.42;100.00;99726.81;4977308;28;20043;-94
2023/09/21 01:58:32;;;;;;;5.78;2.10;;;;;;;16.47;100.00;99730.13;4977220;28;20042;-94
2023/09/21 02:00:58;;;;;;;5.57;2.10;;;;;;;16.56;100.00;99742.84;4978002;28;20083;-93
2023/09/21 02:08:34;;;;;;;4.45;2.03;;;;;;;16.36;100.00;99723.50;5036837;23;20107;-94
2023/09/21 02:11:00;;;;;;;2.75;1.85;;;;;;;16.32;100.00;99728.78;4920632;29;20051;-94
2023/09/21 02:13:26;;;;;;;2.47;1.70;;;;;;;16.40;100.00;99740.66;4937348;29;20126;-94
2023/09/21 02:15:51;;;;;;;2.38;1.73;;;;;;;16.37;100.00;99733.19;4941986;28;20056;-93
2023/09/21 02:21:00;;;;;;;2.55;1.73;;;;;;;16.23;100.00;99716.41;5082490;23;20066;-93
2023/09/21 02:23:25;;;;;;;2.30;1.75;;;;;;;16.12;100.00;99705.16;4956694;28;20024;-94
2023/09/21 02:25:53;;;;;;;3.75;2.00;;;;;;;16.26;100.00;99721.94;4960794;28;20011;-92
2023/09/21 02:28:18;;;;;;;3.63;1.70;;;;;;;16.20;100.00;99707.81;4958713;28;20035;-95
2023/09/21 02:30:47;;;;;;;5.73;1.90;;;;;;;16.17;100.00;99707.66;4960768;28;20026;-93
2023/09/21 02:33:22;;;;;;;3.88;1.90;;;;;;;16.11;100.00;99701.63;4977707;28;20020;-94
2023/09/21 02:35:47;;;;;;;3.47;1.85;;;;;;;16.18;100.00;99701.94;4979330;28;20075;-94
2023/09/21 02:38:46;;;;;;;2.00;1.50;;;;;;;16.28;100.00;99722.41;4964115;28;20011;-93
2023/09/21 02:41:12;;;;;;;3.28;1.80;;;;;;;16.12;100.00;99686.22;4900224;29;20057;-94
2023/09/21 02:43:41;;;;;;;3.23;1.70;;;;;;;16.15;100.00;99702.59;4901335;29;20041;-93
2023/09/21 02:46:07;;;;;;;4.60;1.80;;;;;;;16.28;100.00;99714.31;4901418;29;20056;-93
2023/09/21 02:48:33;;;;;;;1.70;1.40;;;;;;;16.21;100.00;99711.31;4871745;29;20049;-93
2023/09/21 02:51:04;;;;;;;2.35;1.80;;;;;;;16.21;100.00;99705.91;4912227;29;20040;-92
2023/09/21 02:53:32;;;;;;;2.33;2.00;;;;;;;16.09;100.00;99682.25;4961647;28;20015;-93
2023/09/21 02:55:59;;;;;;;3.78;1.70;;;;;;;16.25;100.00;99708.78;4964126;28;20031;-92
2023/09/21 02:58:26;;;;;;;4.53;2.00;;;;;;;15.99;100.00;99677.19;4945225;29;20067;-93
2023/09/21 03:00:52;;;;;;;2.63;1.60;;;;;;;16.08;100.00;99696.09;4974397;28;20035;-92
2023/09/21 03:03:22;;;;;;;5.77;2.20;;;;;;;16.03;100.00;99680.84;4966914;29;20299;-91
2023/09/21 03:05:51;;;;;;;6.32;1.90;;;;;;;16.11;100.00;99707.03;4952864;29;20094;-92
2023/09/21 03:08:17;;;;;;;5.63;1.90;;;;;;;16.06;100.00;99691.03;4943153;28;20011;-93
2023/09/21 03:10:54;;;;;;;2.38;1.70;;;;;;;16.05;100.00;99692.91;4974439;28;20039;-94
2023/09/21 03:13:21;;;;;;;4.32;1.92;;;;;;;16.01;100.00;99688.50;4976047;29;20115;-93
2023/09/21 03:15:48;;;;;;;3.00;2.13;;;;;;;16.02;100.00;99692.78;4976916;28;20039;-93
2023/09/21 03:18:15;;;;;;;3.75;1.80;;;;;;;15.94;100.00;99688.97;4975927;28;20023;-93
2023/09/21 03:20:40;;;;;;;2.75;1.50;;;;;;;15.90;100.00;99685.34;4977352;28;20031;-93
2023/09/21 03:23:10;;;;;;;2.95;1.77;;;;;;;15.88;100.00;99687.56;4960065;29;20053;-94
2023/09/21 03:25:43;;;;;;;3.50;1.85;;;;;;;15.87;100.00;99691.38;4962100;28;20027;-93
2023/09/21 03:28:13;;;;;;;5.17;1.90;;;;;;;15.84;100.00;99692.78;4978187;28;20019;-92
2023/09/21 03:30:40;;;;;;;2.47;1.83;;;;;;;15.79;100.00;99674.03;4978170;28;20023;-93
2023/09/21 03:33:06;;;;;;;4.78;1.70;;;;;;;15.74;100.00;99669.59;4941831;29;20046;-92
2023/09/21 03:35:33;;;;;;;3.42;1.80;;;;;;;15.73;100.00;99683.41;4958002;29;20031;-92
2023/09/21 03:37:58;;;;;;;3.08;1.95;;;;;;;15.74;100.00;99688.50;4967936;28;20074;-93
2023/09/21 03:40:30;;;;;;;4.97;1.77;;;;;;;15.72;100.00;99676.44;4990763;23;20047;-93
2023/09/21 03:42:55;;;;;;;5.20;2.10;;;;;;;15.71;100.00;99677.53;4977510;28;20302;-93
2023/09/21 03:45:25;;;;;;;3.25;2.00;;;;;;;15.67;100.00;99676.63;4979562;28;20046;-93
2023/09/21 03:47:55;;;;;;;2.95;1.60;;;;;;;15.73;100.00;99681.53;4977729;28;20079;-92
2023/09/21 03:50:33;;;;;;;5.50;2.05;;;;;;;15.57;100.00;99656.91;5476556;23;20007;-93
2023/09/21 03:53:24;;;;;;;2.53;1.80;;;;;;;15.74;100.00;99685.00;4968015;29;20091;-92
2023/09/21 03:55:49;;;;;;;4.23;1.80;;;;;;;15.62;100.00;99642.44;4976669;28;20307;-91
2023/09/21 03:58:15;;;;;;;2.13;1.63;;;;;;;15.69;100.00;99652.78;4962061;28;20031;-94
2023/09/21 04:00:52;;;;;;;4.17;1.90;;;;;;;15.73;100.00;99651.81;5297904;23;20038;-95
2023/09/21 04:03:39;;;;;;;3.47;1.73;;;;;;;15.88;100.00;99660.53;5050857;23;20049;-96
2023/09/21 04:56:40;;;;;;;2.00;1.80;;;;;;;17.47;100.00;99644.97;5502932;23;20087;-88
2023/09/21 04:59:05;;;;;;;2.20;1.53;;;;;;;17.51;100.00;99650.53;4916299;29;20025;-87
2023/09/21 05:01:31;;;;;;;2.63;1.90;;;;;;;17.50;100.00;99638.13;4927001;29;20073;-88
2023/09/21 05:03:56;;;;;;;4.83;1.67;;;;;;;17.45;100.00;99635.63;4924997;29;20517;-87
2023/09/21 05:06:23;;;;;;;3.60;1.70;;;;;;;17.46;100.00;99639.91;4925516;29;20038;-88
2023/09/21 05:08:48;;;;;;;2.78;1.52;;;;;;;17.40;100.00;99645.53;4910337;29;20024;-88
2023/09/21 05:11:14;;;;;;;3.63;1.63;;;;;;;17.37;100.00;99642.69;4925670;29;20036;-88
2023/09/21 05:13:40;;;;;;;4.90;1.80;;;;;;;17.32;100.00;99635.59;4926411;29;20020;-87
2023/09/21 05:16:05;;;;;;;4.95;1.80;;;;;;;17.35;100.00;99629.47;4918936;29;20087;-88
2023/09/21 05:18:30;;;;;;;2.67;1.73;;;;;;;17.53;100.00;99632.03;4926730;29;20087;-87
2023/09/21 05:20:56;;;;;;;3.57;2.00;;;;;;;17.64;100.00;99621.56;4926941;29;20040;-86
2023/09/21 05:23:21;;;;;;;3.05;1.77;;;;;;;17.71;100.00;99628.00;4925672;29;20032;-88
2023/09/21 05:25:48;;;;;;;6.33;2.03;;;;;;;17.85;100.00;99633.13;4925661;29;20358;-87
2023/09/21 05:28:16;;;;;;;6.35;1.92;;;;;;;17.91;100.00;99635.63;4925123;29;20067;-86
2023/09/21 05:30:41;;;;;;;3.50;1.90;;;;;;;17.94;100.00;99633.03;4914110;29;20040;-87
2023/09/21 05:33:07;;;;;;;4.67;1.73;;;;;;;17.94;100.00;99624.13;4917392;29;20088;-87
2023/09/21 05:35:34;;;;;;;3.90;2.00;;;;;;;17.92;100.00;99624.44;4913879;29;20322;-89
2023/09/21 05:38:00;;;;;;;3.88;1.80;;;;;;;18.03;100.00;99627.53;4933861;29;20036;-92
2023/09/21 05:43:01;;;;;;;3.78;1.80;;;;;;;18.12;100.00;99619.28;4958371;23;20087;-88
2023/09/21 05:45:27;;;;;;;5.78;2.33;;;;;;;18.14;100.00;99625.16;4942015;29;20024;-88
2023/09/21 05:47:52;;;;;;;2.53;1.70;;;;;;;18.13;100.00;99629.81;4971442;28;20035;-89
2023/09/21 05:50:18;;;;;;;2.23;1.67;;;;;;;18.12;100.00;99619.28;4944994;29;20103;-88
2023/09/21 05:52:46;;;;;;;4.40;2.20;;;;;;;18.17;100.00;99621.78;4944196;29;20035;-87
2023/09/21 05:55:12;;;;;;;2.13;1.70;;;;;;;18.11;100.00;99626.66;4942066;29;20030;-87
2023/09/21 05:57:46;;;;;;;3.30;1.90;;;;;;;18.07;100.00;99622.25;4931723;29;20031;-89
2023/09/21 06:00:12;;;;;;;2.28;1.77;;;;;;;17.95;100.00;99623.00;4950107;29;20015;-89
2023/09/21 06:02:38;;;;;;;4.47;2.05;;;;;;;17.86;100.00;99628.50;4957029;29;20491;-88
2023/09/21 06:05:05;;;;;;;5.40;1.87;;;;;;;17.63;100.00;99617.25;4947868;28;20028;-87
2023/09/21 06:07:35;;;;;;;4.88;2.00;;;;;;;17.55;100.00;99613.53;4948838;28;20082;-86
2023/09/21 06:10:01;;;;;;;5.43;2.20;;;;;;;17.40;100.00;99613.03;4950928;28;20031;-87
2023/09/21 06:12:27;;;;;;;3.92;1.70;;;;;;;17.51;100.00;99624.25;4954100;29;20451;-87
2023/09/21 06:14:53;;;;;;;4.13;1.70;;;;;;;17.50;100.00;99627.28;4958967;28;20071;-88
2023/09/21 06:17:19;;;;;;;5.57;2.10;;;;;;;17.37;100.00;99624.53;4956937;29;20038;-86
2023/09/21 06:19:44;;;;;;;4.47;2.00;;;;;;;17.24;100.00;99633.72;4957325;28;20393;-87
2023/09/21 06:22:12;;;;;;;4.97;1.93;;;;;;;16.93;100.00;99621.38;4958704;28;20027;-85
2023/09/21 06:24:44;;;;;;;3.13;2.00;;;;;;;16.74;100.00;99638.84;4946000;29;20039;-86
2023/09/21 06:27:14;;;;;;;3.72;1.90;;;;;;;16.48;100.00;99623.56;4957168;29;20387;-88
2023/09/21 06:33:04;;;;;;;6.85;1.98;;;;;;;16.26;100.00;99632.75;5072209;23;20055;-86
2023/09/21 06:35:30;;;;;;;3.92;2.25;;;;;;;16.01;100.00;99599.34;4938362;29;20103;-87
2023/09/21 06:38:01;;;;;;;4.57;2.47;;;;;;;16.04;100.00;99620.31;4934448;29;20939;-87
2023/09/21 06:40:30;;;;;;;4.72;2.50;;;;;;;15.92;100.00;99606.66;4914621;29;20027;-87
2023/09/21 06:42:55;;;;;;;5.72;2.60;;;;;;;16.10;100.00;99613.59;4918589;29;20036;-87
2023/09/21 06:48:42;;;;;;;3.17;2.00;;;;;;;16.32;100.00;99630.66;5120134;23;20071;-92
2023/09/21 06:51:08;;;;;;;3.15;2.42;;;;;;;16.46;100.00;99631.22;4956571;29;20035;-92
2023/09/21 06:53:36;;;;;;;4.47;2.40;;;;;;;16.59;100.00;99648.31;4957711;29;20012;-90
2023/09/21 06:56:05;;;;;;;3.60;1.90;;;;;;;16.68;100.00;99644.78;4952967;29;20323;-91
2023/09/21 07:06:22;;;;;;;3.38;2.63;;;;;;;16.37;100.00;99646.69;5121380;23;20084;-89
2023/09/21 07:08:55;;;;;;;4.53;2.35;;;;;;;16.26;100.00;99642.75;4940401;29;20048;-89
2023/09/21 07:15:10;;;;;;;4.45;2.63;;;;;;;16.24;100.00;99653.91;4951075;28;20058;-89
2023/09/21 08:17:23;;;;;;;5.55;2.70;;;;;;;15.92;100.00;99628.28;5549814;23;20261;-89
2023/09/21 14:33:26;;;;;;;4.78;4.22;;;;;;;15.44;100.00;99518.31;4952601;23;20071;-93
2023/09/21 14:36:10;;;;;;;7.20;4.75;;;;;;;15.43;100.00;99510.56;4979936;28;20050;-93
2023/09/21 14:38:36;;;;;;;5.05;4.65;;;;;;;15.08;100.00;99457.47;4981196;28;20027;-93
2023/09/21 15:37:59;;;;;;;17.52;8.60;;;;;;;15.43;100.00;99494.34;5561678;23;20507;-85
2023/09/21 15:40:25;;;;;;;16.43;8.07;;;;;;;15.46;100.00;99488.31;4930958;29;20066;-85
2023/09/21 15:42:51;;;;;;;12.38;9.13;;;;;;;15.50;100.00;99489.25;4931579;29;20111;-85
2023/09/21 15:45:17;;;;;;;13.90;8.07;;;;;;;15.61;100.00;99489.69;4933864;29;20119;-85
2023/09/21 15:47:42;;;;;;;10.30;7.57;;;;;;;15.63;100.00;99483.97;4934269;29;20094;-85
2023/09/21 15:50:08;;;;;;;7.93;6.38;;;;;;;15.71;100.00;99483.13;4934311;29;20023;-85
2023/09/21 15:52:33;;;;;;;7.27;6.50;;;;;;;15.69;100.00;99469.94;4932294;29;20023;-85
2023/09/21 15:55:01;;;;;;;7.27;5.80;;;;;;;15.69;100.00;99463.78;4933907;29;20030;-86
2023/09/21 15:57:28;;;;;;;6.17;5.60;;;;;;;15.66;100.00;99469.81;4934189;29;20271;-85
2023/09/21 15:59:54;;;;;;;5.30;4.80;;;;;;;15.75;100.00;99470.56;4934212;29;20020;-85
2023/09/21 16:02:19;;;;;;;5.20;4.70;;;;;;;15.72;100.00;99471.19;4933687;29;20534;-85
2023/09/21 16:04:45;;;;;;;6.13;4.50;;;;;;;15.77;100.00;99459.44;4933475;29;20020;-85
2023/09/21 16:07:10;;;;;;;6.43;5.30;;;;;;;15.69;100.00;99461.06;4933965;29;20076;-85
2023/09/21 16:09:35;;;;;;;5.63;4.73;;;;;;;15.66;100.00;99457.09;4933512;29;20111;-85
2023/09/21 16:12:01;;;;;;;6.30;4.83;;;;;;;15.64;100.00;99455.84;4933355;29;20321;-85
2023/09/21 16:14:26;;;;;;;6.27;5.07;;;;;;;15.65;100.00;99468.22;4934303;29;20031;-85
2023/09/21 16:16:52;;;;;;;6.17;4.77;;;;;;;15.58;100.00;99474.91;4933578;29;20028;-85
2023/09/21 16:19:17;;;;;;;5.55;5.05;;;;;;;15.57;100.00;99486.84;4934107;29;20027;-86
2023/09/21 16:21:43;;;;;;;8.40;5.20;;;;;;;15.55;100.00;99496.38;4933055;29;20099;-86
2023/09/21 16:24:08;;;;;;;7.13;5.80;;;;;;;15.49;100.00;99492.28;4933918;29;20552;-85
2023/09/21 16:26:34;;;;;;;5.77;5.20;;;;;;;15.50;100.00;99494.66;4933305;29;20046;-86
2023/09/21 16:29:03;;;;;;;8.83;6.60;;;;;;;15.48;100.00;99510.38;4933911;29;20383;-85
2023/09/21 16:31:28;;;;;;;7.22;6.53;;;;;;;15.50;100.00;99505.47;4933367;29;20588;-85
2023/09/21 16:33:53;;;;;;;10.93;7.87;;;;;;;15.47;100.00;99506.09;4939944;29;20106;-85
2023/09/21 16:36:19;;;;;;;8.07;7.23;;;;;;;15.46;100.00;99493.72;4933718;29;20054;-85
2023/09/21 16:38:44;;;;;;;10.87;7.97;;;;;;;15.43;100.00;99494.34;4946803;29;20058;-86
2023/09/21 16:41:09;;;;;;;8.80;7.83;;;;;;;15.42;100.00;99498.16;4952085;29;20082;-85
2023/09/21 16:43:35;;;;;;;9.20;6.93;;;;;;;15.37;100.00;99495.63;4950866;28;20106;-85
2023/09/21 16:46:00;;;;;;;9.55;7.80;;;;;;;15.32;100.00;99495.84;4952057;29;20489;-85
2023/09/21 16:48:26;;;;;;;8.87;6.97;;;;;;;15.34;100.00;99501.69;4952791;28;20031;-85
2023/09/21 16:50:51;;;;;;;7.60;6.28;;;;;;;15.34;100.00;99507.88;4951741;29;20030;-85
2023/09/21 16:53:17;;;;;;;7.60;6.80;;;;;;;15.32;100.00;99518.19;4951383;28;20034;-86
2023/09/21 16:55:42;;;;;;;9.23;6.33;;;;;;;15.27;100.00;99524.56;4952054;28;20046;-86
2023/09/21 16:58:08;;;;;;;5.90;5.30;;;;;;;15.22;100.00;99524.72;4953211;29;20110;-85
2023/09/21 17:00:34;;;;;;;5.20;4.68;;;;;;;15.16;100.00;99523.31;4952810;29;20046;-85
2023/09/21 17:03:00;;;;;;;3.83;3.23;;;;;;;15.11;100.00;99510.00;4948371;28;20019;-85
2023/09/21 17:05:26;;;;;;;3.63;3.30;;;;;;;15.02;100.00;99515.41;4953866;29;20291;-86
2023/09/21 17:07:52;;;;;;;3.92;3.30;;;;;;;14.96;100.00;99509.41;4954042;29;20030;-86
2023/09/21 17:10:17;;;;;;;3.92;2.53;;;;;;;14.94;100.00;99508.13;4953525;28;20028;-85
2023/09/21 17:12:45;;;;;;;3.40;2.40;;;;;;;14.91;100.00;99504.16;4951138;29;20011;-85
2023/09/21 17:15:13;;;;;;;4.10;2.67;;;;;;;14.91;100.00;99506.84;4948406;29;20481;-85
2023/09/21 17:17:38;;;;;;;3.72;2.22;;;;;;;14.85;100.00;99502.72;4952142;28;20038;-86
2023/09/21 17:20:05;;;;;;;2.70;2.00;;;;;;;14.77;100.00;99500.84;4952578;29;20039;-85
2023/09/21 17:22:31;;;;;;;1.95;1.67;;;;;;;14.68;100.00;99496.25;4951375;28;20027;-84
2023/09/21 17:24:56;;;;;;;2.87;1.90;;;;;;;14.61;100.00;99498.56;4950941;29;20019;-84
2023/09/21 17:27:21;;;;;;;5.10;1.73;;;;;;;14.59;100.00;99497.31;4952351;29;20063;-84
2023/09/21 17:29:47;;;;;;;3.33;1.58;;;;;;;14.60;100.00;99502.41;4951611;29;20098;-84
2023/09/21 17:32:13;;;;;;;1.90;1.60;;;;;;;14.60;100.00;99501.59;4951786;29;20032;-85
2023/09/21 17:34:38;;;;;;;1.73;1.50;;;;;;;14.63;100.00;99515.22;4950137;28;20066;-84
2023/09/21 17:37:04;;;;;;;1.57;1.33;;;;;;;14.58;100.00;99507.31;4952260;29;20534;-84
2023/09/21 17:39:30;;;;;;;2.13;1.60;;;;;;;14.59;100.00;99511.59;4951598;28;20099;-85
2023/09/21 17:41:57;;;;;;;1.80;1.33;;;;;;;14.57;100.00;99515.72;4948679;28;20391;-84
2023/09/21 17:44:22;;;;;;;2.23;1.50;;;;;;;14.57;100.00;99516.50;4949332;29;20299;-84
2023/09/21 17:46:49;;;;;;;2.80;1.50;;;;;;;14.57;100.00;99524.59;4947920;29;20034;-85
2023/09/21 17:49:14;;;;;;;3.50;1.57;;;;;;;14.58;100.00;99523.50;4944092;29;20028;-84
2023/09/21 17:51:40;;;;;;;2.07;1.57;;;;;;;14.57;100.00;99530.00;4931393;29;20818;-85
2023/09/21 17:54:06;;;;;;;1.60;1.50;;;;;;;14.50;100.00;99526.97;4939793;29;20035;-85
2023/09/21 17:56:32;;;;;;;3.00;1.40;;;;;;;14.44;100.00;99522.81;4950921;29;20066;-85
2023/09/21 17:58:58;;;;;;;3.47;1.40;;;;;;;14.39;100.00;99521.91;4958525;29;20031;-85
2023/09/21 18:01:23;;;;;;;1.83;1.70;;;;;;;14.32;100.00;99505.38;4950295;29;20649;-85
2023/09/21 18:03:49;;;;;;;3.00;1.70;;;;;;;14.30;100.00;99498.72;4948824;28;20031;-89
2023/09/21 18:06:15;;;;;;;3.67;1.95;;;;;;;14.21;100.00;99496.81;4953787;28;20031;-91
2023/09/21 18:08:41;;;;;;;3.10;1.98;;;;;;;14.22;100.00;99522.66;4955906;28;20027;-88
2023/09/21 18:11:07;;;;;;;3.30;1.87;;;;;;;14.20;100.00;99507.91;4954872;29;20035;-89
2023/09/21 18:13:33;;;;;;;2.72;1.80;;;;;;;14.23;100.00;99515.38;4955121;29;20031;-91
2023/09/21 18:15:58;;;;;;;4.47;2.15;;;;;;;14.19;100.00;99520.56;4955956;28;20027;-92
2023/09/21 18:18:23;;;;;;;4.47;2.00;;;;;;;14.19;100.00;99522.50;4956337;28;20031;-91
2023/09/21 18:20:52;;;;;;;2.97;2.07;;;;;;;14.14;100.00;99531.50;4955815;28;20031;-89
2023/09/21 18:23:17;;;;;;;3.25;2.00;;;;;;;14.15;100.00;99535.00;4953980;29;20114;-92
2023/09/21 18:25:43;;;;;;;2.60;2.10;;;;;;;14.12;100.00;99527.53;4949926;29;20110;-87
2023/09/21 18:28:08;;;;;;;3.40;1.90;;;;;;;14.13;100.00;99531.81;4953640;28;20027;-87
2023/09/21 18:30:33;;;;;;;2.00;1.80;;;;;;;14.05;100.00;99520.72;4953999;28;20043;-88
2023/09/21 18:32:59;;;;;;;2.40;1.60;;;;;;;14.08;100.00;99530.84;4954225;29;20038;-87
2023/09/21 18:35:24;;;;;;;5.27;1.83;;;;;;;14.11;100.00;99542.91;4960528;28;20041;-93
2023/09/21 18:37:50;;;;;;;4.68;1.95;;;;;;;14.15;100.00;99551.16;4959096;28;20129;-96
2023/09/21 18:40:15;;;;;;;2.97;2.67;;;;;;;14.14;100.00;99553.06;4958748;28;20023;-95
2023/09/21 18:42:41;;;;;;;2.93;2.67;;;;;;;14.05;100.00;99542.28;4963136;28;20023;-95
2023/09/21 18:45:07;;;;;;;3.70;2.85;;;;;;;14.12;100.00;99557.97;4965329;28;20031;-94
2023/09/21 18:47:32;;;;;;;3.17;2.40;;;;;;;14.11;100.00;99555.56;4963651;28;20027;-95
2023/09/21 18:49:58;;;;;;;6.50;2.70;;;;;;;14.05;100.00;99544.97;4960097;29;20325;-94
2023/09/21 18:52:23;;;;;;;4.53;2.77;;;;;;;14.01;100.00;99540.47;4970832;28;20027;-93
2023/09/21 18:54:49;;;;;;;3.20;2.90;;;;;;;13.97;100.00;99542.25;4973732;28;20038;-93
2023/09/21 18:57:14;;;;;;;6.13;3.00;;;;;;;13.84;100.00;99525.09;4976528;28;20090;-93
2023/09/21 18:59:40;;;;;;;3.10;2.77;;;;;;;14.00;100.00;99544.28;4973724;29;20027;-91
2023/09/21 19:15:09;;;;;;;4.78;2.20;;;;;;;13.89;100.00;99581.47;5033133;23;20192;-96
2023/09/21 20:04:52;;;;;;;3.28;1.95;;;;;;;13.48;100.00;99610.22;5618676;23;20560;-96
2023/09/21 20:07:37;;;;;;;3.03;1.83;;;;;;;13.51;100.00;99611.53;4962344;28;20020;-96
2023/09/21 20:10:34;;;;;;;4.25;1.65;;;;;;;13.42;100.00;99600.72;4976668;28;20047;-96
2023/09/21 20:13:06;;;;;;;2.92;1.80;;;;;;;13.65;100.00;99619.50;4975940;29;20087;-96
2023/09/21 20:15:33;;;;;;;4.07;1.60;;;;;;;13.59;100.00;99616.16;4965621;29;20027;-96
2023/09/21 20:18:18;;;;;;;2.55;1.48;;;;;;;13.43;100.00;99600.41;4946148;29;20471;-96
2023/09/21 20:20:45;;;;;;;3.67;1.70;;;;;;;13.44;100.00;99591.22;4946352;29;20615;-96
2023/09/21 20:23:11;;;;;;;3.75;1.50;;;;;;;13.61;100.00;99619.34;4930684;29;20043;-96
2023/09/21 20:25:39;;;;;;;2.85;1.50;;;;;;;13.63;100.00;99634.06;4949992;29;20028;-96
2023/09/21 20:28:07;;;;;;;3.70;1.42;;;;;;;13.63;100.00;99633.28;4934060;29;20036;-97
2023/09/21 20:30:34;;;;;;;3.20;1.40;;;;;;;13.65;100.00;99631.09;4931158;29;20044;-96
2023/09/21 20:33:00;;;;;;;4.17;1.70;;;;;;;13.50;100.00;99608.03;4926014;29;20296;-96
2023/09/21 20:35:26;;;;;;;4.15;1.38;;;;;;;13.58;100.00;99617.25;4947080;29;20027;-96
2023/09/21 20:37:51;;;;;;;3.58;1.80;;;;;;;13.48;100.00;99600.28;4945104;29;20023;-96
2023/09/21 20:40:17;;;;;;;2.20;1.40;;;;;;;13.70;100.00;99636.31;4948056;29;20036;-96
2023/09/21 20:42:43;;;;;;;3.25;1.98;;;;;;;13.50;100.00;99601.88;4947989;29;20035;-96
2023/09/21 20:45:10;;;;;;;3.25;2.08;;;;;;;13.62;100.00;99627.09;4941721;29;20075;-96
2023/09/21 20:48:02;;;;;;;7.38;2.33;;;;;;;13.55;100.00;99615.19;4946469;29;20027;-96
2023/09/21 20:50:40;;;;;;;2.72;1.70;;;;;;;13.48;100.00;99611.03;4952132;29;20015;-96
2023/09/21 20:53:44;;;;;;;4.87;1.90;;;;;;;13.46;100.00;99605.16;4910498;29;20072;-96
2023/09/21 20:56:42;;;;;;;4.57;2.20;;;;;;;13.53;100.00;99620.06;4937702;28;20299;-96
2023/09/21 20:59:25;;;;;;;3.20;1.85;;;;;;;13.54;100.00;99622.47;4945254;29;20035;-96
2023/09/21 21:01:51;;;;;;;6.40;2.00;;;;;;;13.65;100.00;99641.84;4932405;29;20024;-96
2023/09/21 21:04:16;;;;;;;4.10;2.10;;;;;;;13.75;100.00;99656.97;4953180;28;20067;-96
2023/09/21 21:06:42;;;;;;;3.53;2.00;;;;;;;13.61;100.00;99630.88;4958534;28;20035;-96
2023/09/21 21:09:07;;;;;;;6.53;2.00;;;;;;;13.69;100.00;99648.22;4955858;28;20024;-96
2023/09/21 21:11:33;;;;;;;2.15;1.83;;;;;;;13.74;100.00;99661.53;4949209;28;20038;-96
2023/09/21 21:13:59;;;;;;;3.80;2.13;;;;;;;13.59;100.00;99632.31;4939297;29;20032;-96
2023/09/21 21:16:25;;;;;;;5.93;2.30;;;;;;;13.70;100.00;99652.47;4939952;29;20050;-96
2023/09/21 21:18:51;;;;;;;4.18;2.47;;;;;;;13.70;100.00;99651.69;4957701;29;20510;-96
2023/09/21 21:21:17;;;;;;;6.60;2.77;;;;;;;13.73;100.00;99669.94;4939028;29;20047;-96
2023/09/21 21:23:43;;;;;;;5.07;2.78;;;;;;;13.71;100.00;99667.53;4938290;29;20534;-95
2023/09/21 21:26:26;;;;;;;5.88;3.08;;;;;;;13.72;100.00;99668.34;4941331;29;20080;-96
2023/09/21 21:28:52;;;;;;;5.30;3.13;;;;;;;13.74;100.00;99676.91;4923853;29;20063;-95
2023/09/21 21:31:17;;;;;;;6.37;3.47;;;;;;;13.62;100.00;99674.75;4908576;29;20379;-95
2023/09/21 21:33:42;;;;;;;6.90;3.30;;;;;;;13.53;100.00;99672.00;4932217;29;20028;-95
2023/09/21 21:36:08;;;;;;;4.80;2.90;;;;;;;13.59;100.00;99680.75;4928716;29;20059;-95
2023/09/21 21:38:33;;;;;;;7.57;3.20;;;;;;;13.56;100.00;99682.16;4946878;29;20024;-96
2023/09/21 21:40:58;;;;;;;7.88;3.75;;;;;;;13.52;100.00;99685.75;4947401;29;20028;-96
2023/09/21 21:43:25;;;;;;;5.37;3.87;;;;;;;13.51;100.00;99678.81;4945019;29;20028;-96
2023/09/21 21:45:50;;;;;;;6.60;3.63;;;;;;;13.60;100.00;99679.66;4941106;29;20363;-96
2023/09/21 21:48:15;;;;;;;6.53;3.80;;;;;;;13.57;100.00;99672.19;4924585;29;20024;-95
2023/09/21 21:50:44;;;;;;;6.97;4.10;;;;;;;13.63;100.00;99692.50;4937500;29;20034;-96
2023/09/21 21:53:10;;;;;;;7.10;4.07;;;;;;;13.40;100.00;99657.50;4948412;29;20023;-96
2023/09/21 21:55:36;;;;;;;10.20;4.13;;;;;;;13.38;100.00;99648.13;4956396;29;20038;-96
2023/09/21 21:58:01;;;;;;;6.93;4.73;;;;;;;13.32;100.00;99650.16;4934306;29;20527;-96
2023/09/21 22:00:31;;;;;;;7.80;4.47;;;;;;;13.51;100.00;99686.88;4940691;29;20039;-96
2023/09/21 22:02:58;;;;;;;6.33;5.03;;;;;;;13.40;100.00;99679.03;4934400;29;20034;-96
2023/09/21 22:05:26;;;;;;;6.57;4.67;;;;;;;13.41;100.00;99671.78;4939341;29;20288;-96
2023/09/21 22:07:53;;;;;;;9.70;4.82;;;;;;;13.34;100.00;99664.06;4943326;29;20050;-96
2023/09/21 22:10:18;;;;;;;10.80;5.72;;;;;;;13.49;100.00;99687.16;4940911;29;20031;-96
2023/09/21 22:12:45;;;;;;;8.63;6.10;;;;;;;13.40;100.00;99679.03;4941126;29;20038;-96
2023/09/21 22:15:10;;;;;;;10.25;6.65;;;;;;;13.46;100.00;99687.78;4942287;29;20550;-96
2023/09/21 22:17:36;;;;;;;10.73;6.73;;;;;;;13.54;100.00;99705.09;4940441;29;20023;-96
2023/09/21 22:20:12;;;;;;;11.70;7.38;;;;;;;13.39;100.00;99673.94;4940252;29;20095;-96
2023/09/21 22:22:38;;;;;;;13.53;7.93;;;;;;;13.62;100.00;99709.75;4940031;29;20038;-96
2023/09/21 22:25:07;;;;;;;15.48;8.63;;;;;;;13.61;100.00;99705.47;4940444;29;20028;-96
2023/09/21 22:27:33;;;;;;;22.90;10.85;;;;;;;13.53;100.00;99698.94;4932296;29;20024;-96
2023/09/21 22:29:58;;;;;;;25.30;11.43;;;;;;;13.38;100.00;99667.75;4923736;29;20158;-96
2023/09/21 22:32:24;;;;;;;22.43;12.33;;;;;;;13.52;100.00;99697.34;4929991;29;20459;-96
2023/09/21 22:34:54;;;;;;;23.93;12.67;;;;;;;13.54;100.00;99710.47;4943081;29;20028;-96